Ana Sayfa
METAR-TAF:

METAR-TAF

Havaalanları :

Dakar, Senegal

Enlem: 14-44N, Boylam: 017-30W, yükseklik: 27 m

Güncel hava durumu gözlemi

Rapor saat 21:00 UTC de 2 saat ve 24 dakika önce yapıldı.
Rüzgar kuzeydan 10 kt
Sıcaklık 21°C
Nem 94%
Basınç 1012 hPa
Görüş mesafesi: 8000 m

METAR: GOOY 202100Z 36010KT 8000 NSC 21/20 Q1012

Saat: 23:24 (23:24 UTC)

Tahmin

Rapor saat 17:30 UTC de 5 saat ve 54 dakika önce yapıldı.
Ayın 20'si saat 18 UTC'den ayın 21'si saat 24 UTC'ye kadar geçerli Tahmin
Rüzgar kuzeydan 12 kt
Görüş mesafesi 10 km veya daha fazla
1500 m altında bulut yok ve kümülonimbus yok

TAF: GOOY 201730Z 2018/2124 35012KT CAVOK

4.000'den fazla havaalanı için hava durumu gözlemleri ve tahminleri (METAR ve TAF raporları).

Kullanılabilir istasyonlar harita üzerinde sarı ve kırmızı noktalarla gösterilir.

İstasyonun adını görmek için fareyi noktanın üzerinde gezdirin.

Sonrasında hava gözlem ve tahminlerini görmek için tıklayın.

Haritayı değiştirmek için: yaklaştırmak için siyah artı işaretli yeşil düğmeye ve uzaklaştırmak için de eksi işaretli düğmeye hızla tıklayın; bitişik haritalar için yeşil okları kullanın.


METAR-TAF: